Time;durP1;ratioP1;P1;durP2;ratioP2;P2;SDS_P1;SDS_P2;PMS_P1;PMS_P2;Temp;Humidity;BMP_temperature;BMP_pressure;BME280_temperature;BME280_humidity;BME280_pressure;Samples;Min_cycle;Max_cycle;Signal;HPM_P1;HPM_P2
2022/04/16 00:00:15;;;;;;;16.43;9.57;;;;;;;20.19;37.34;103181.41;5052441;28;20663;-72
2022/04/16 00:02:40;;;;;;;13.60;9.17;;;;;;;20.53;37.11;103183.59;5053793;28;20094;-72
2022/04/16 00:05:06;;;;;;;13.20;9.17;;;;;;;19.57;38.44;103179.47;5053078;28;20552;-72
2022/04/16 00:07:32;;;;;;;13.27;9.07;;;;;;;19.74;37.98;103182.81;5052185;28;20021;-72
2022/04/16 00:09:58;;;;;;;15.03;9.57;;;;;;;19.94;37.20;103184.38;5052568;28;20021;-72
2022/04/16 00:12:23;;;;;;;12.67;9.10;;;;;;;18.75;38.71;103186.34;5052790;28;20086;-72
2022/04/16 00:14:49;;;;;;;12.77;9.20;;;;;;;18.42;39.55;103192.72;5052869;28;20143;-72
2022/04/16 00:17:15;;;;;;;16.57;8.90;;;;;;;19.62;38.26;103185.59;5052743;28;20017;-72
2022/04/16 00:19:41;;;;;;;13.47;8.90;;;;;;;19.46;38.33;103196.34;5054000;28;20032;-72
2022/04/16 00:22:12;;;;;;;14.17;8.97;;;;;;;19.77;37.11;103193.38;5051811;28;20156;-73
2022/04/16 00:24:41;;;;;;;15.90;10.30;;;;;;;19.35;38.03;103203.53;5053389;28;20023;-72
2022/04/16 00:27:10;;;;;;;12.17;8.67;;;;;;;19.48;38.01;103199.88;5052470;28;20025;-72
2022/04/16 00:29:38;;;;;;;14.53;9.27;;;;;;;19.75;37.84;103200.47;5051366;28;20389;-72
2022/04/16 00:32:05;;;;;;;13.50;9.47;;;;;;;19.96;37.46;103204.69;5053832;28;20029;-72
2022/04/16 00:34:31;;;;;;;15.87;9.83;;;;;;;19.72;37.63;103192.53;5052859;28;20021;-72
2022/04/16 00:36:57;;;;;;;17.97;9.93;;;;;;;19.57;38.34;103195.38;5052125;28;20028;-72
2022/04/16 00:39:22;;;;;;;17.33;10.43;;;;;;;19.98;37.25;103205.53;5052349;28;20029;-72
2022/04/16 00:41:48;;;;;;;14.47;9.20;;;;;;;19.42;38.30;103194.63;5052477;28;20503;-72
2022/04/16 00:44:13;;;;;;;15.07;8.80;;;;;;;19.79;36.79;103194.22;5053415;28;20476;-72
2022/04/16 00:46:39;;;;;;;13.20;9.00;;;;;;;19.67;37.07;103199.66;5052892;28;20423;-72
2022/04/16 00:49:05;;;;;;;11.63;8.33;;;;;;;20.00;36.45;103202.88;5051429;28;20496;-72
2022/04/16 00:51:31;;;;;;;13.87;8.77;;;;;;;19.01;38.04;103214.41;5051957;28;20027;-72
2022/04/16 00:53:57;;;;;;;13.17;8.80;;;;;;;18.99;38.10;103202.97;5051225;28;20388;-72
2022/04/16 00:56:22;;;;;;;14.30;9.40;;;;;;;19.43;37.27;103207.00;5051123;28;20035;-72
2022/04/16 00:58:48;;;;;;;12.90;8.93;;;;;;;18.44;39.60;103202.41;5051342;28;20163;-72
2022/04/16 01:01:14;;;;;;;14.00;9.40;;;;;;;18.51;39.37;103202.38;5051839;28;20113;-72
2022/04/16 01:03:43;;;;;;;15.20;8.60;;;;;;;18.52;39.31;103204.13;5050520;28;20027;-72
2022/04/16 01:06:14;;;;;;;12.17;8.23;;;;;;;18.51;39.33;103208.56;5051862;28;20051;-72
2022/04/16 01:08:40;;;;;;;13.03;9.23;;;;;;;19.26;37.62;103204.50;5051358;28;20025;-73
2022/04/16 01:11:06;;;;;;;14.13;8.43;;;;;;;18.67;39.25;103208.44;5050944;28;20369;-72
2022/04/16 01:13:31;;;;;;;14.93;9.33;;;;;;;18.51;39.28;103210.34;5051267;28;20037;-72
2022/04/16 01:15:56;;;;;;;12.43;7.77;;;;;;;18.54;39.29;103208.53;5051412;28;20070;-72
2022/04/16 01:18:22;;;;;;;12.80;9.23;;;;;;;18.40;39.48;103216.56;5050738;28;20028;-72
2022/04/16 01:20:47;;;;;;;15.97;9.03;;;;;;;18.41;38.92;103207.72;5050806;28;20528;-72
2022/04/16 01:23:13;;;;;;;12.10;8.57;;;;;;;18.32;39.39;103213.06;5051704;28;20035;-72
2022/04/16 01:25:38;;;;;;;12.60;8.50;;;;;;;17.71;40.78;103204.44;5050227;28;20152;-72
2022/04/16 01:28:05;;;;;;;13.67;8.53;;;;;;;17.92;40.29;103210.59;5052670;28;20047;-72
2022/04/16 01:30:30;;;;;;;14.07;9.40;;;;;;;17.47;41.29;103210.63;5050811;28;20476;-72
2022/04/16 01:32:56;;;;;;;13.40;8.77;;;;;;;17.03;42.17;103209.78;5050756;28;20031;-72
2022/04/16 01:35:21;;;;;;;15.97;9.20;;;;;;;17.50;41.16;103204.47;5051202;28;20116;-73
2022/04/16 01:37:47;;;;;;;13.93;9.60;;;;;;;17.53;41.10;103201.81;5050015;28;20106;-72
2022/04/16 01:40:14;;;;;;;14.10;9.07;;;;;;;17.56;40.94;103207.13;5051368;28;20374;-72
2022/04/16 01:42:43;;;;;;;16.27;9.47;;;;;;;17.56;41.15;103200.06;5051516;28;20183;-72
2022/04/16 01:45:10;;;;;;;14.00;9.40;;;;;;;17.91;40.54;103207.03;5050390;28;20113;-72
2022/04/16 01:47:38;;;;;;;16.53;9.70;;;;;;;17.21;41.66;103200.09;5050593;28;20028;-72
2022/04/16 01:50:09;;;;;;;15.87;9.77;;;;;;;17.14;41.89;103201.84;5052159;28;20052;-72
2022/04/16 01:52:36;;;;;;;15.37;9.07;;;;;;;16.56;42.78;103203.50;5050004;28;20024;-72
2022/04/16 01:55:02;;;;;;;15.80;9.33;;;;;;;16.59;42.84;103200.88;5050778;28;20017;-71
2022/04/16 01:57:27;;;;;;;15.67;9.60;;;;;;;16.14;43.64;103204.25;5034178;28;20067;-72
2022/04/16 01:59:53;;;;;;;14.90;8.37;;;;;;;16.21;44.32;103208.66;5049597;28;20021;-72
2022/04/16 02:02:19;;;;;;;14.77;9.87;;;;;;;16.78;42.58;103204.44;5050765;28;20793;-72
2022/04/16 02:04:45;;;;;;;14.03;9.27;;;;;;;16.79;42.82;103210.59;5049399;28;20021;-72
2022/04/16 02:07:11;;;;;;;16.90;9.90;;;;;;;16.42;43.68;103208.75;5051136;28;20079;-72
2022/04/16 02:09:36;;;;;;;14.27;9.60;;;;;;;16.38;43.85;103214.91;5051160;28;20033;-72
2022/04/16 02:12:02;;;;;;;15.63;9.93;;;;;;;16.35;43.91;103208.72;5050667;28;20487;-72
2022/04/16 02:14:28;;;;;;;12.63;8.50;;;;;;;15.90;44.86;103213.81;5049810;28;20100;-72
2022/04/16 02:16:53;;;;;;;18.30;9.83;;;;;;;16.38;43.65;103206.97;5050062;28;20056;-72
2022/04/16 02:19:19;;;;;;;17.37;9.33;;;;;;;15.53;46.51;103216.19;5051780;28;20486;-72
2022/04/16 02:21:45;;;;;;;15.23;9.33;;;;;;;16.19;44.60;103218.34;5048833;28;20552;-72
2022/04/16 02:24:13;;;;;;;15.60;10.03;;;;;;;16.62;43.72;103215.84;5050513;28;20070;-72
2022/04/16 02:26:42;;;;;;;18.97;11.33;;;;;;;15.98;44.90;103214.72;5049687;28;20021;-72
2022/04/16 02:29:10;;;;;;;20.40;11.17;;;;;;;15.99;44.88;103216.50;5049542;28;20024;-72
2022/04/16 02:31:37;;;;;;;25.97;13.13;;;;;;;16.30;44.36;103213.97;5049619;28;20465;-71
2022/04/16 02:34:05;;;;;;;18.93;10.50;;;;;;;15.97;44.65;103212.97;5049403;28;20027;-72
2022/04/16 02:36:31;;;;;;;16.13;10.20;;;;;;;16.29;43.98;103212.22;5051165;28;20067;-72
2022/04/16 02:38:57;;;;;;;16.33;10.23;;;;;;;15.96;44.47;103211.19;5049657;28;20025;-72
2022/04/16 02:41:23;;;;;;;15.80;10.73;;;;;;;16.10;44.58;103216.53;5050594;28;20032;-72
2022/04/16 02:43:49;;;;;;;15.63;10.67;;;;;;;16.31;43.83;103218.41;5049697;28;20024;-72
2022/04/16 02:48:59;;;;;;;16.50;10.17;;;;;;;16.44;43.53;103214.94;5050453;28;20610;-72
2022/04/16 02:51:24;;;;;;;19.20;11.10;;;;;;;16.32;43.79;103214.88;5049764;28;20032;-72
2022/04/16 02:53:50;;;;;;;19.60;11.00;;;;;;;16.75;42.64;103209.72;5049115;28;20027;-72
2022/04/16 02:56:16;;;;;;;17.93;11.60;;;;;;;16.23;43.59;103214.84;5050355;28;20114;-72
2022/04/16 02:58:41;;;;;;;21.03;11.67;;;;;;;16.17;44.04;103215.72;5049133;28;20021;-72
2022/04/16 03:01:07;;;;;;;20.97;11.60;;;;;;;16.47;43.47;103223.72;5049607;28;20021;-72
2022/04/16 03:03:33;;;;;;;21.53;10.63;;;;;;;16.83;42.57;103224.69;5049894;28;20586;-72
2022/04/16 03:05:58;;;;;;;20.53;11.20;;;;;;;17.20;41.58;103222.09;5049238;28;20027;-72
2022/04/16 03:08:24;;;;;;;18.47;11.27;;;;;;;16.37;42.89;103223.69;5049816;28;20029;-72
2022/04/16 03:10:55;;;;;;;21.57;11.93;;;;;;;16.35;43.70;103219.28;5048560;28;20017;-72
2022/04/16 03:13:21;;;;;;;16.37;10.30;;;;;;;16.75;42.37;103225.56;5049759;28;20032;-72
2022/04/16 03:18:30;;;;;;;20.57;12.00;;;;;;;16.47;43.19;103223.72;5051079;28;20059;-72
2022/04/16 03:20:57;;;;;;;22.17;11.73;;;;;;;16.42;43.18;103227.22;5048997;28;20045;-72
2022/04/16 03:23:23;;;;;;;20.17;11.87;;;;;;;16.77;42.39;103223.81;5048676;28;20040;-72
2022/04/16 03:25:48;;;;;;;25.77;13.23;;;;;;;16.18;43.76;103227.13;5048936;28;20337;-71
2022/04/16 03:28:14;;;;;;;22.17;12.13;;;;;;;16.45;43.56;103227.22;5049614;28;20433;-72
2022/04/16 03:30:40;;;;;;;21.83;11.77;;;;;;;16.28;43.54;103224.53;5047945;28;20083;-72
2022/04/16 03:33:06;;;;;;;21.47;11.30;;;;;;;16.42;42.76;103227.22;5049279;28;20029;-72
2022/04/16 03:35:34;;;;;;;24.60;12.20;;;;;;;15.66;44.92;103228.59;5049206;28;20037;-71
2022/04/16 03:37:59;;;;;;;25.13;12.40;;;;;;;15.86;44.59;103225.22;5048535;28;20025;-72
2022/04/16 03:40:26;;;;;;;26.30;11.93;;;;;;;16.05;43.82;103227.06;5050610;28;20023;-71
2022/04/16 03:42:56;;;;;;;20.43;11.73;;;;;;;15.99;44.07;103220.88;5050010;28;20426;-72
2022/04/16 03:45:25;;;;;;;22.63;12.03;;;;;;;15.58;44.83;103235.56;5049647;28;20066;-72
2022/04/16 03:47:53;;;;;;;19.17;11.53;;;;;;;16.15;43.78;103238.53;5048587;28;20021;-72
2022/04/16 03:50:19;;;;;;;22.53;12.73;;;;;;;15.92;44.32;103231.41;5049251;28;20416;-72
2022/04/16 03:52:46;;;;;;;20.63;12.47;;;;;;;15.89;44.47;103239.28;5048091;28;20365;-72
2022/04/16 04:00:45;;;;;;;24.77;11.60;;;;;;;15.62;44.64;103250.53;5050225;28;20124;-72
2022/04/16 04:03:11;;;;;;;25.33;12.63;;;;;;;15.45;45.63;103250.38;5049320;28;20025;-72
2022/04/16 04:05:38;;;;;;;24.07;12.90;;;;;;;15.18;45.57;103262.47;5047948;28;20316;-72
2022/04/16 04:08:08;;;;;;;25.83;13.13;;;;;;;15.60;45.10;103254.88;5049034;28;20535;-72
2022/04/16 04:10:34;;;;;;;23.33;13.07;;;;;;;15.26;45.91;103262.50;5048696;28;20504;-71
2022/04/16 04:12:59;;;;;;;22.63;13.13;;;;;;;14.88;47.27;103261.28;5048350;28;20447;-71
2022/04/16 04:15:27;;;;;;;24.43;13.07;;;;;;;14.88;46.53;103260.41;5048909;28;20024;-72
2022/04/16 04:17:52;;;;;;;22.20;12.40;;;;;;;15.29;45.73;103254.66;5048183;28;20017;-72
2022/04/16 04:20:18;;;;;;;22.70;11.97;;;;;;;15.25;46.05;103260.75;5049154;28;20489;-72
2022/04/16 04:22:43;;;;;;;23.37;12.23;;;;;;;15.44;45.54;103244.22;5048248;28;20036;-72
2022/04/16 04:25:08;;;;;;;24.37;11.90;;;;;;;15.73;44.67;103251.47;5048863;28;20033;-71
2022/04/16 04:27:34;;;;;;;26.33;13.27;;;;;;;15.30;45.62;103256.41;5048988;28;20025;-72
2022/04/16 04:30:02;;;;;;;24.10;12.33;;;;;;;15.77;44.72;103257.63;5053042;28;20536;-72
2022/04/16 04:32:28;;;;;;;24.43;12.77;;;;;;;15.20;45.52;103267.75;5053812;28;20056;-71
2022/04/16 04:34:53;;;;;;;24.20;13.27;;;;;;;15.21;45.62;103277.41;5051441;28;20049;-72
2022/04/16 04:37:19;;;;;;;23.33;12.60;;;;;;;15.22;46.25;103276.53;5053787;28;20398;-72
2022/04/16 04:39:44;;;;;;;27.53;12.70;;;;;;;15.32;45.66;103270.47;5051870;28;20017;-72
2022/04/16 04:42:10;;;;;;;23.37;12.57;;;;;;;15.12;46.45;103277.31;5051450;28;20469;-72
2022/04/16 04:44:36;;;;;;;26.67;12.93;;;;;;;14.78;46.61;103277.81;5051573;28;20472;-72
2022/04/16 04:47:01;;;;;;;22.30;12.87;;;;;;;15.66;45.20;103270.75;5052083;28;20056;-71
2022/04/16 04:49:27;;;;;;;26.80;13.70;;;;;;;15.97;43.91;103276.25;5052843;28;20056;-72
2022/04/16 04:51:52;;;;;;;31.87;13.93;;;;;;;15.52;44.41;103283.81;5051682;28;20725;-71
2022/04/16 04:54:18;;;;;;;26.93;13.47;;;;;;;16.01;43.71;103275.41;5053318;28;20066;-71
2022/04/16 04:56:43;;;;;;;28.47;13.00;;;;;;;15.16;45.76;103279.13;5050945;28;20116;-72
2022/04/16 04:59:08;;;;;;;25.33;13.57;;;;;;;15.30;45.51;103288.00;5053061;28;20405;-72
2022/04/16 05:01:34;;;;;;;25.50;12.63;;;;;;;15.29;46.06;103288.00;5051059;28;20036;-71
2022/04/16 05:03:59;;;;;;;27.00;13.63;;;;;;;15.44;45.21;103281.13;5051874;28;20175;-72
2022/04/16 05:06:25;;;;;;;32.90;15.30;;;;;;;15.44;45.24;103278.50;5053184;28;20473;-71
2022/04/16 05:08:51;;;;;;;24.27;13.93;;;;;;;15.55;45.38;103282.97;5050710;28;20044;-71
2022/04/16 05:11:16;;;;;;;22.57;11.83;;;;;;;15.44;45.25;103286.41;5035193;28;20048;-72
2022/04/16 05:13:42;;;;;;;25.63;13.90;;;;;;;15.03;46.48;103289.53;5051529;28;20506;-71
2022/04/16 05:16:07;;;;;;;29.00;13.63;;;;;;;14.84;47.69;103287.56;5051045;28;20021;-71
2022/04/16 05:18:32;;;;;;;24.80;13.77;;;;;;;15.39;46.22;103288.09;5051604;28;20037;-72
2022/04/16 05:20:58;;;;;;;23.70;14.20;;;;;;;15.32;46.76;103295.94;5052416;28;20049;-73
2022/04/16 05:23:24;;;;;;;28.63;13.60;;;;;;;15.46;45.67;103298.72;5050733;28;20056;-72
2022/04/16 05:25:50;;;;;;;24.23;13.53;;;;;;;15.39;46.12;103293.38;5051348;28;20031;-72
2022/04/16 05:28:15;;;;;;;28.07;14.00;;;;;;;14.41;48.95;103294.03;5052756;28;20025;-72
2022/04/16 05:30:54;;;;;;;29.77;15.03;;;;;;;15.10;47.06;103307.16;5050299;28;20021;-72
2022/04/16 05:36:05;;;;;;;23.00;12.70;;;;;;;15.00;47.82;103313.22;5052936;28;20425;-72
2022/04/16 05:38:31;;;;;;;26.67;13.97;;;;;;;14.90;47.56;103313.94;5051289;28;20108;-72
2022/04/16 05:40:57;;;;;;;23.17;12.83;;;;;;;15.10;47.19;103311.56;5050887;28;20021;-72
2022/04/16 05:43:22;;;;;;;24.23;14.30;;;;;;;15.56;46.43;103316.34;5051239;28;20063;-72
2022/04/16 05:45:48;;;;;;;26.07;13.57;;;;;;;15.00;48.02;103321.09;5049988;28;20033;-72
2022/04/16 05:48:13;;;;;;;24.17;13.10;;;;;;;15.21;47.44;103324.84;5052287;28;20032;-72
2022/04/16 05:50:39;;;;;;;28.83;13.40;;;;;;;14.95;47.88;103328.06;5050544;28;20037;-72
2022/04/16 05:53:07;;;;;;;23.37;13.47;;;;;;;14.79;49.17;103332.25;5050368;28;20029;-72
2022/04/16 05:55:34;;;;;;;29.20;13.60;;;;;;;15.28;47.91;103331.94;5050842;28;20059;-72
2022/04/16 05:58:00;;;;;;;25.40;13.87;;;;;;;15.07;48.17;103328.19;5049969;28;20067;-72
2022/04/16 06:00:26;;;;;;;26.73;14.53;;;;;;;15.47;47.65;103326.81;5050931;28;20029;-72
2022/04/16 06:02:51;;;;;;;21.67;12.77;;;;;;;15.81;46.95;103335.06;5050169;28;20052;-72
2022/04/16 06:05:16;;;;;;;29.27;14.87;;;;;;;15.17;48.53;103344.13;5049954;28;20032;-72
2022/04/16 06:07:42;;;;;;;26.30;13.90;;;;;;;14.43;49.86;103342.28;5050237;28;20032;-72
2022/04/16 06:10:08;;;;;;;28.67;15.27;;;;;;;15.16;48.29;103347.59;5034159;28;20029;-72
2022/04/16 06:12:33;;;;;;;23.47;13.13;;;;;;;15.56;47.35;103348.00;5049444;28;20021;-72
2022/04/16 06:15:00;;;;;;;27.83;14.47;;;;;;;15.48;48.01;103349.69;5050632;28;20536;-72
2022/04/16 06:17:25;;;;;;;26.37;14.57;;;;;;;15.90;46.91;103343.91;5051705;28;20025;-72
2022/04/16 06:19:51;;;;;;;25.83;14.87;;;;;;;15.95;46.53;103346.59;5049578;28;20471;-72
2022/04/16 06:22:16;;;;;;;27.57;14.63;;;;;;;16.30;45.59;103355.63;5050495;28;20109;-72
2022/04/16 06:24:42;;;;;;;29.77;15.47;;;;;;;16.53;45.70;103347.84;5051233;28;20032;-72
2022/04/16 06:27:08;;;;;;;31.20;14.93;;;;;;;14.84;48.99;103350.75;5049662;28;20025;-72
2022/04/16 06:29:34;;;;;;;30.20;15.93;;;;;;;15.53;48.10;103358.50;5051387;28;20508;-72
2022/04/16 06:32:00;;;;;;;23.40;12.67;;;;;;;15.09;49.14;103360.69;5050154;28;20095;-72
2022/04/16 06:34:27;;;;;;;28.23;15.73;;;;;;;15.84;47.33;103369.34;5049437;28;20036;-72
2022/04/16 06:36:52;;;;;;;27.80;15.57;;;;;;;15.64;48.04;103362.13;5049725;28;20107;-72
2022/04/16 06:39:17;;;;;;;31.33;15.27;;;;;;;15.87;47.79;103366.75;5049965;28;20498;-72
2022/04/16 06:41:43;;;;;;;31.43;15.53;;;;;;;16.26;46.11;103367.91;5048919;28;20569;-72
2022/04/16 06:44:08;;;;;;;27.77;15.33;;;;;;;16.40;47.63;103371.53;5050256;28;20035;-72
2022/04/16 06:46:34;;;;;;;27.67;15.00;;;;;;;16.78;46.12;103356.72;5049831;28;20119;-73
2022/04/16 06:48:59;;;;;;;33.97;15.77;;;;;;;16.57;46.71;103362.81;5049009;28;20033;-73
2022/04/16 06:51:24;;;;;;;30.97;15.80;;;;;;;16.28;47.72;103366.16;5049740;28;20029;-73
2022/04/16 06:53:50;;;;;;;31.20;15.90;;;;;;;16.67;46.79;103361.97;5049635;28;20112;-73
2022/04/16 06:56:16;;;;;;;29.83;16.47;;;;;;;17.55;44.63;103361.34;5049338;28;20461;-72
2022/04/16 06:58:42;;;;;;;29.30;16.57;;;;;;;17.22;45.64;103374.50;5049417;28;20028;-73
2022/04/16 07:01:08;;;;;;;30.30;16.07;;;;;;;17.51;45.49;103375.47;5049138;28;20064;-72
2022/04/16 07:03:33;;;;;;;31.30;16.40;;;;;;;16.96;46.76;103371.81;5049658;28;20033;-72
2022/04/16 07:05:59;;;;;;;31.37;15.83;;;;;;;17.49;45.18;103362.25;5049595;28;20031;-72
2022/04/16 07:08:25;;;;;;;27.87;16.03;;;;;;;17.12;46.84;103362.16;5049206;28;20382;-72
2022/04/16 07:10:50;;;;;;;30.60;15.50;;;;;;;17.35;46.48;103374.53;5049118;28;20094;-72
2022/04/16 07:13:15;;;;;;;31.87;15.80;;;;;;;17.42;45.73;103366.63;5051025;28;20052;-73
2022/04/16 07:15:41;;;;;;;31.80;16.47;;;;;;;17.13;46.93;103370.09;5049049;28;20027;-72
2022/04/16 07:18:07;;;;;;;29.13;16.37;;;;;;;17.59;45.55;103364.00;5050912;28;20107;-72
2022/04/16 07:20:33;;;;;;;35.67;16.17;;;;;;;17.26;45.65;103371.00;5050519;28;20041;-73
2022/04/16 07:22:58;;;;;;;33.10;16.53;;;;;;;17.62;45.86;103368.41;5050252;28;20039;-73
2022/04/16 07:25:24;;;;;;;31.67;16.80;;;;;;;18.00;44.91;103367.56;5050980;28;20056;-72
2022/04/16 07:27:49;;;;;;;30.03;15.00;;;;;;;17.74;45.75;103373.69;5050626;28;20136;-72
2022/04/16 07:30:15;;;;;;;31.27;16.13;;;;;;;18.16;45.48;103370.19;5049302;28;20056;-73
2022/04/16 07:32:40;;;;;;;26.43;15.20;;;;;;;20.54;39.66;103361.56;5049330;28;20057;-72
2022/04/16 07:35:06;;;;;;;25.88;14.75;;;;;;;20.76;39.67;103364.84;5050877;28;20025;-73
2022/04/16 07:37:32;;;;;;;22.58;14.02;;;;;;;22.01;36.43;103356.75;5049010;28;20032;-73
2022/04/16 07:39:57;;;;;;;22.52;13.32;;;;;;;24.29;33.40;103357.75;5049339;28;20051;-73
2022/04/16 07:42:27;;;;;;;23.10;12.10;;;;;;;23.97;33.14;103362.19;5050910;28;20510;-73
2022/04/16 07:44:52;;;;;;;23.58;12.93;;;;;;;23.21;33.77;103370.25;5031875;28;20037;-73
2022/04/16 07:47:18;;;;;;;20.63;12.35;;;;;;;24.51;31.75;103356.22;5049759;28;20481;-73
2022/04/16 07:49:43;;;;;;;20.88;13.27;;;;;;;23.90;32.49;103371.28;5048912;28;20045;-72
2022/04/16 07:52:08;;;;;;;25.35;12.90;;;;;;;24.76;31.50;103358.19;5048633;28;20087;-73
2022/04/16 07:54:34;;;;;;;23.45;12.52;;;;;;;24.72;31.20;103367.22;5049110;28;20044;-72
2022/04/16 07:56:59;;;;;;;18.30;11.82;;;;;;;24.76;31.11;103365.31;5048988;28;20029;-73
2022/04/16 07:59:25;;;;;;;22.13;13.20;;;;;;;25.74;30.01;103363.97;5048532;28;20109;-72
2022/04/16 08:01:50;;;;;;;21.30;11.75;;;;;;;25.35;30.49;103372.44;5048778;28;20024;-73
2022/04/16 08:04:15;;;;;;;23.55;13.27;;;;;;;25.59;30.07;103370.72;5053018;28;20033;-73
2022/04/16 08:06:41;;;;;;;19.20;12.05;;;;;;;24.29;31.12;103368.44;5053137;28;20110;-73
2022/04/16 08:09:06;;;;;;;19.10;11.65;;;;;;;25.02;30.92;103364.53;5054407;28;20029;-73
2022/04/16 08:11:32;;;;;;;20.00;11.77;;;;;;;24.30;32.31;103364.84;5053373;28;20075;-73
2022/04/16 08:13:58;;;;;;;20.13;12.15;;;;;;;25.20;30.12;103363.94;5052595;28;20151;-73
2022/04/16 08:16:24;;;;;;;18.75;11.80;;;;;;;26.59;29.07;103364.47;5054361;28;20033;-73
2022/04/16 08:18:49;;;;;;;20.63;12.85;;;;;;;25.65;29.12;103369.63;5051724;28;20542;-73
2022/04/16 08:21:15;;;;;;;20.30;13.23;;;;;;;25.05;30.01;103375.13;5052552;28;20512;-73
2022/04/16 08:23:54;;;;;;;18.67;12.18;;;;;;;26.05;29.36;103366.47;5052419;28;20116;-73
2022/04/16 08:26:21;;;;;;;16.50;11.70;;;;;;;27.38;27.53;103363.22;5052169;28;20017;-73
2022/04/16 08:28:47;;;;;;;18.98;12.07;;;;;;;27.27;27.12;103369.00;5035603;28;20044;-73
2022/04/16 08:31:12;;;;;;;18.58;10.77;;;;;;;26.57;27.78;103377.09;5054131;28;20213;-73
2022/04/16 08:33:38;;;;;;;17.35;11.15;;;;;;;26.03;29.32;103364.78;5052757;28;20041;-73
2022/04/16 08:36:03;;;;;;;17.73;11.38;;;;;;;27.17;28.00;103371.19;5052632;28;20112;-73
2022/04/16 08:38:32;;;;;;;16.08;11.13;;;;;;;28.27;26.55;103375.50;5052692;28;20079;-73
2022/04/16 08:41:00;;;;;;;22.27;12.15;;;;;;;27.80;27.02;103382.94;5051487;28;20492;-73
2022/04/16 08:43:26;;;;;;;17.45;10.20;;;;;;;27.60;27.37;103373.91;5052357;28;20033;-73
2022/04/16 08:45:53;;;;;;;15.05;11.18;;;;;;;26.84;27.72;103376.97;5052010;28;20111;-73
2022/04/16 08:48:20;;;;;;;17.77;11.30;;;;;;;27.36;27.76;103375.84;5035233;28;20572;-73
2022/04/16 08:50:46;;;;;;;19.40;11.75;;;;;;;28.23;26.30;103379.25;5051780;28;20021;-73
2022/04/16 08:53:12;;;;;;;17.33;11.30;;;;;;;25.45;30.13;103383.72;5052274;28;20033;-73
2022/04/16 08:55:38;;;;;;;17.17;11.63;;;;;;;27.47;27.08;103384.31;5052465;28;20025;-72
2022/04/16 08:58:04;;;;;;;17.88;11.55;;;;;;;28.48;26.41;103377.25;5052356;28;20068;-73
2022/04/16 09:00:29;;;;;;;17.60;11.40;;;;;;;28.63;25.97;103372.97;5035560;28;20061;-73
2022/04/16 09:02:56;;;;;;;17.27;11.55;;;;;;;26.75;28.19;103388.06;5050896;28;20403;-73
2022/04/16 09:05:24;;;;;;;18.35;11.70;;;;;;;28.50;26.33;103378.06;5052056;28;20035;-73
2022/04/16 09:07:52;;;;;;;17.42;11.13;;;;;;;27.74;26.89;103376.91;5051070;28;20035;-73
2022/04/16 09:10:18;;;;;;;16.40;10.55;;;;;;;28.55;25.89;103371.53;5053143;28;20021;-73
2022/04/16 09:12:45;;;;;;;17.42;11.35;;;;;;;27.92;26.41;103375.22;5051384;28;20037;-73
2022/04/16 09:15:12;;;;;;;16.63;11.50;;;;;;;27.61;26.83;103375.66;5052023;28;20104;-73
2022/04/16 09:17:39;;;;;;;18.02;11.63;;;;;;;27.10;27.71;103375.06;5034942;28;20037;-73
2022/04/16 09:20:10;;;;;;;18.75;11.60;;;;;;;27.51;27.85;103375.19;5051571;28;20035;-73
2022/04/16 09:22:40;;;;;;;16.10;10.77;;;;;;;28.94;25.60;103373.28;5050861;28;20021;-73
2022/04/16 09:25:19;;;;;;;18.25;11.57;;;;;;;29.11;25.60;103374.25;5051671;28;20108;-73
2022/04/16 09:27:55;;;;;;;16.65;11.07;;;;;;;30.12;24.40;103364.69;5050912;28;20032;-73
2022/04/16 09:30:29;;;;;;;19.02;10.68;;;;;;;29.71;24.27;103376.66;5050850;28;20029;-73
2022/04/16 09:32:59;;;;;;;16.88;10.38;;;;;;;28.92;25.47;103374.28;5051417;28;20036;-73
2022/04/16 09:35:33;;;;;;;13.70;9.25;;;;;;;28.49;25.65;103371.78;5051363;28;20040;-73
2022/04/16 09:38:03;;;;;;;18.50;10.32;;;;;;;27.62;26.34;103377.44;5050686;28;20029;-73
2022/04/16 09:40:34;;;;;;;16.90;10.05;;;;;;;28.36;25.12;103373.31;5051567;28;20082;-73
2022/04/16 09:43:02;;;;;;;15.60;10.35;;;;;;;28.53;25.07;103375.22;5050527;28;20033;-72
2022/04/16 09:45:29;;;;;;;16.85;10.18;;;;;;;27.02;27.24;103371.81;5051297;28;20457;-73
2022/04/16 09:47:55;;;;;;;17.33;10.30;;;;;;;28.98;24.85;103365.06;5051086;28;20116;-73
2022/04/16 09:50:22;;;;;;;24.08;11.13;;;;;;;29.75;24.42;103372.00;5051957;28;20025;-73
2022/04/16 09:52:55;;;;;;;14.57;10.02;;;;;;;29.91;24.10;103366.69;5034282;28;20043;-73
2022/04/16 09:55:24;;;;;;;28.77;11.73;;;;;;;30.71;23.46;103366.88;5051218;28;20119;-73
2022/04/16 09:58:10;;;;;;;16.58;10.02;;;;;;;30.93;23.46;103356.59;5050087;28;20032;-72
2022/04/16 10:00:37;;;;;;;16.02;10.40;;;;;;;30.16;23.62;103366.25;5050461;28;20067;-72
2022/04/16 10:03:07;;;;;;;16.23;9.68;;;;;;;29.89;24.25;103363.22;5050758;28;20036;-72
2022/04/16 10:05:33;;;;;;;18.35;9.95;;;;;;;29.23;24.52;103365.56;5051424;28;20036;-73
2022/04/16 10:08:00;;;;;;;13.68;9.10;;;;;;;29.51;25.35;103358.84;5050771;28;20036;-72
2022/04/16 10:10:30;;;;;;;12.93;8.63;;;;;;;30.15;23.31;103359.09;5050914;28;20025;-72
2022/04/16 10:12:59;;;;;;;13.75;9.52;;;;;;;31.70;21.70;103361.19;5049483;28;20082;-72
2022/04/16 10:15:35;;;;;;;14.38;8.75;;;;;;;28.38;24.88;103371.44;5051139;28;20448;-72
2022/04/16 10:18:02;;;;;;;12.05;8.95;;;;;;;28.55;24.85;103360.75;5033692;28;20043;-72
2022/04/16 10:20:28;;;;;;;14.75;9.38;;;;;;;28.49;25.04;103369.09;5050479;28;20045;-72
2022/04/16 10:23:01;;;;;;;19.85;9.55;;;;;;;29.40;24.87;103361.19;5033541;28;20040;-72
2022/04/16 10:25:41;;;;;;;15.00;8.82;;;;;;;30.73;23.53;103365.81;5049490;28;20056;-73
2022/04/16 10:28:33;;;;;;;14.45;8.93;;;;;;;30.31;23.73;103363.66;5050449;28;20021;-72
2022/04/16 10:30:58;;;;;;;11.02;7.88;;;;;;;29.01;23.73;103372.97;5050401;28;20029;-72
2022/04/16 10:33:28;;;;;;;13.60;8.10;;;;;;;29.76;22.98;103369.22;5033119;28;20538;-72
2022/04/16 10:36:01;;;;;;;13.32;8.88;;;;;;;27.12;26.59;103370.53;5050002;28;20043;-73
2022/04/16 10:38:37;;;;;;;14.27;9.27;;;;;;;28.01;25.45;103367.72;5050340;28;20063;-72
2022/04/16 10:41:19;;;;;;;12.98;8.60;;;;;;;28.44;24.53;103360.41;5049419;28;20032;-72
2022/04/16 10:44:08;;;;;;;10.75;6.57;;;;;;;27.63;25.64;103362.16;5050036;28;20060;-73
2022/04/16 10:46:40;;;;;;;13.90;8.55;;;;;;;27.23;25.89;103359.31;5049253;28;20112;-72
2022/04/16 10:49:08;;;;;;;12.77;7.93;;;;;;;27.37;25.79;103361.50;5051110;28;20024;-72
2022/04/16 10:51:35;;;;;;;12.68;8.15;;;;;;;26.27;27.49;103356.78;5050011;28;20120;-72
2022/04/16 10:54:07;;;;;;;11.95;7.70;;;;;;;26.58;26.27;103360.06;5049195;28;20021;-72
2022/04/16 10:56:33;;;;;;;9.52;5.93;;;;;;;27.11;25.10;103359.81;5049838;28;20403;-72
2022/04/16 10:59:00;;;;;;;7.72;5.13;;;;;;;27.72;23.11;103359.09;5050943;28;20108;-73
2022/04/16 11:01:27;;;;;;;6.60;4.35;;;;;;;28.37;23.02;103357.13;5049411;28;20032;-72
2022/04/16 11:03:54;;;;;;;6.90;4.90;;;;;;;28.07;22.91;103356.72;5049434;28;20124;-72
2022/04/16 11:06:20;;;;;;;8.07;4.95;;;;;;;29.81;21.27;103352.78;5050048;28;20037;-72
2022/04/16 11:08:46;;;;;;;7.40;4.88;;;;;;;29.95;20.64;103352.97;5048901;28;20120;-72
2022/04/16 11:11:13;;;;;;;7.20;4.95;;;;;;;27.96;23.39;103356.25;5049805;28;20451;-72
2022/04/16 11:13:40;;;;;;;6.80;4.95;;;;;;;29.04;21.95;103359.38;5050345;28;20033;-72
2022/04/16 11:16:07;;;;;;;7.53;4.70;;;;;;;27.08;24.73;103358.16;5049182;28;20450;-72
2022/04/16 11:18:45;;;;;;;7.45;4.75;;;;;;;29.89;21.20;103355.13;5049563;28;20526;-72
2022/04/16 11:21:13;;;;;;;6.45;4.75;;;;;;;28.88;21.58;103352.06;5049532;28;20051;-72
2022/04/16 11:23:42;;;;;;;7.57;4.82;;;;;;;26.88;24.97;103357.13;5048248;28;20389;-73